Check out our new PWSWeather beta!
PWSweather.com
Personal Weather Stations
Station Observations
WD4JKH
Forsyth, GA 31029

Forsyth, GA 31029

Lat: 33.033225, Lon: -83.927995

Elevation: 709

Station Type: Davis Vantage VUE

High Low Average
Temperature 57.7°F14.3°C 42.0°F5.6°C 48.8°F9.3°C
Dew Point 44.2°F6.8°C 38.8°F3.8°C 40.8°F4.9°C
Winds 9.7 mph 15.6 kmh Calm Calm 3.0 mph WNW4.8 kmh WNW
Wind Gusts 22.0 mph35.4 kmh 1.0 mph1.6 kmh 9.0 mph14.5 kmh
Humidity 90% 56% 74%
Pressure 29.96 in1014.6 mb 29.86 in1011.2 mb -
Precipitation 0.00 in0.0 mm - -
Hour Temp Dew Point Humidity Winds Wind Gusts Pressure Precip Precip Rate Daily Precip Total
12:03 AM 50.2°F10.1°C 43.9°F6.6°C 79% 3.4 mph WNW5.5 kmh WNW 13.0 mph20.9 kmh 29.86 in1011.2 mb 0.00 in0.0 mm 0.00 in0.0 mm 0.00 in0.0 mm
12:08 AM 50.1°F10.1°C 44.2°F6.8°C 80% 5.1 mph WNW8.2 kmh WNW 13.0 mph20.9 kmh 29.86 in1011.2 mb 0.00 in0.0 mm 0.00 in0.0 mm 0.00 in0.0 mm
12:13 AM 50.1°F10.1°C 44.2°F6.8°C 80% 5.7 mph W9.2 kmh W 13.0 mph20.9 kmh 29.86 in1011.2 mb 0.00 in0.0 mm 0.00 in0.0 mm 0.00 in0.0 mm
12:18 AM 50.1°F10.1°C 44.2°F6.8°C 80% 4.6 mph WNW7.4 kmh WNW 13.0 mph20.9 kmh 29.86 in1011.2 mb 0.00 in0.0 mm 0.00 in0.0 mm 0.00 in0.0 mm
12:24 AM 50.0°F10.0°C 44.1°F6.7°C 80% 7.2 mph WNW11.6 kmh WNW 14.0 mph22.5 kmh 29.86 in1011.2 mb 0.00 in0.0 mm 0.00 in0.0 mm 0.00 in0.0 mm
12:29 AM 49.9°F9.9°C 43.7°F6.5°C 79% 4.6 mph WNW7.4 kmh WNW 14.0 mph22.5 kmh 29.86 in1011.2 mb 0.00 in0.0 mm 0.00 in0.0 mm 0.00 in0.0 mm
12:34 AM 49.8°F9.9°C 43.3°F6.3°C 78% 7.6 mph WNW12.2 kmh WNW 19.0 mph30.6 kmh 29.86 in1011.2 mb 0.00 in0.0 mm 0.00 in0.0 mm 0.00 in0.0 mm
12:39 AM 49.6°F9.8°C 42.4°F5.8°C 76% 5.6 mph WNW9.0 kmh WNW 19.0 mph30.6 kmh 29.86 in1011.2 mb 0.00 in0.0 mm 0.00 in0.0 mm 0.00 in0.0 mm
12:44 AM 49.3°F9.6°C 41.4°F5.2°C 74% 4.5 mph WNW7.2 kmh WNW 19.0 mph30.6 kmh 29.86 in1011.2 mb 0.00 in0.0 mm 0.00 in0.0 mm 0.00 in0.0 mm
12:50 AM 49.0°F9.4°C 41.2°F5.1°C 74% 7.0 mph WNW11.3 kmh WNW 19.0 mph30.6 kmh 29.86 in1011.2 mb 0.00 in0.0 mm 0.00 in0.0 mm 0.00 in0.0 mm
12:55 AM 48.7°F9.3°C 40.9°F4.9°C 74% 7.7 mph W12.4 kmh W 17.0 mph27.4 kmh 29.87 in1011.5 mb 0.00 in0.0 mm 0.00 in0.0 mm 0.00 in0.0 mm
01:00 AM 48.4°F9.1°C 39.9°F4.4°C 72% 9.7 mph WNW15.6 kmh WNW 21.0 mph33.8 kmh 29.87 in1011.5 mb 0.00 in0.0 mm 0.00 in0.0 mm 0.00 in0.0 mm
01:05 AM 48.0°F8.9°C 39.8°F4.3°C 73% 4.7 mph WNW7.6 kmh WNW 21.0 mph33.8 kmh 29.87 in1011.5 mb 0.00 in0.0 mm 0.00 in0.0 mm 0.00 in0.0 mm
01:10 AM 47.7°F8.7°C 39.9°F4.4°C 74% 7.1 mph NW11.4 kmh NW 21.0 mph33.8 kmh 29.87 in1011.5 mb 0.00 in0.0 mm 0.00 in0.0 mm 0.00 in0.0 mm
01:16 AM 47.5°F8.6°C 40.0°F4.4°C 75% 8.5 mph WNW13.7 kmh WNW 22.0 mph35.4 kmh 29.87 in1011.5 mb 0.00 in0.0 mm 0.00 in0.0 mm 0.00 in0.0 mm
01:21 AM 47.3°F8.5°C 40.1°F4.5°C 76% 5.1 mph WNW8.2 kmh WNW 22.0 mph35.4 kmh 29.87 in1011.5 mb 0.00 in0.0 mm 0.00 in0.0 mm 0.00 in0.0 mm
01:26 AM 47.1°F8.4°C 40.3°F4.6°C 77% 3.7 mph WNW6.0 kmh WNW 22.0 mph35.4 kmh 29.87 in1011.5 mb 0.00 in0.0 mm 0.00 in0.0 mm 0.00 in0.0 mm
01:31 AM 46.9°F8.3°C 40.1°F4.5°C 77% 4.4 mph WNW7.1 kmh WNW 17.0 mph27.4 kmh 29.87 in1011.5 mb 0.00 in0.0 mm 0.00 in0.0 mm 0.00 in0.0 mm
01:36 AM 46.7°F8.2°C 40.2°F4.6°C 78% 2.6 mph WNW4.2 kmh WNW 13.0 mph20.9 kmh 29.87 in1011.5 mb 0.00 in0.0 mm 0.00 in0.0 mm 0.00 in0.0 mm
01:42 AM 46.5°F8.1°C 40.0°F4.4°C 78% 3.6 mph WNW5.8 kmh WNW 12.0 mph19.3 kmh 29.87 in1011.5 mb 0.00 in0.0 mm 0.00 in0.0 mm 0.00 in0.0 mm
01:47 AM 46.3°F7.9°C 40.1°F4.5°C 79% 2.6 mph WNW4.2 kmh WNW 12.0 mph19.3 kmh 29.87 in1011.5 mb 0.00 in0.0 mm 0.00 in0.0 mm 0.00 in0.0 mm
01:52 AM 46.1°F7.8°C 40.0°F4.4°C 79% 3.2 mph WNW5.1 kmh WNW 12.0 mph19.3 kmh 29.86 in1011.2 mb 0.00 in0.0 mm 0.00 in0.0 mm 0.00 in0.0 mm
01:57 AM 46.0°F7.8°C 39.9°F4.4°C 79% 2.5 mph WNW4.0 kmh WNW 10.0 mph16.1 kmh 29.86 in1011.2 mb 0.00 in0.0 mm 0.00 in0.0 mm 0.00 in0.0 mm
02:02 AM 45.9°F7.7°C 39.8°F4.3°C 79% 2.8 mph NW4.5 kmh NW 10.0 mph16.1 kmh 29.86 in1011.2 mb 0.00 in0.0 mm 0.00 in0.0 mm 0.00 in0.0 mm
02:08 AM 45.7°F7.6°C 39.6°F4.2°C 79% 4.5 mph WNW7.2 kmh WNW 10.0 mph16.1 kmh 29.86 in1011.2 mb 0.00 in0.0 mm 0.00 in0.0 mm 0.00 in0.0 mm
02:13 AM 45.7°F7.6°C 39.6°F4.2°C 79% 5.5 mph WNW8.9 kmh WNW 12.0 mph19.3 kmh 29.86 in1011.2 mb 0.00 in0.0 mm 0.00 in0.0 mm 0.00 in0.0 mm
02:18 AM 45.6°F7.6°C 39.5°F4.2°C 79% 4.2 mph WNW6.8 kmh WNW 12.0 mph19.3 kmh 29.86 in1011.2 mb 0.00 in0.0 mm 0.00 in0.0 mm 0.00 in0.0 mm
02:23 AM 45.5°F7.5°C 39.4°F4.1°C 79% 2.9 mph WNW4.7 kmh WNW 12.0 mph19.3 kmh 29.86 in1011.2 mb 0.00 in0.0 mm 0.00 in0.0 mm 0.00 in0.0 mm
02:28 AM 45.3°F7.4°C 39.2°F4.0°C 79% 4.7 mph W7.6 kmh W 12.0 mph19.3 kmh 29.86 in1011.2 mb 0.00 in0.0 mm 0.00 in0.0 mm 0.00 in0.0 mm
02:34 AM 45.2°F7.3°C 39.1°F3.9°C 79% 2.7 mph WNW4.3 kmh WNW 11.0 mph17.7 kmh 29.87 in1011.5 mb 0.00 in0.0 mm 0.00 in0.0 mm 0.00 in0.0 mm
02:39 AM 45.0°F7.2°C 39.2°F4.0°C 80% 4.1 mph WNW6.6 kmh WNW 10.0 mph16.1 kmh 29.87 in1011.5 mb 0.00 in0.0 mm 0.00 in0.0 mm 0.00 in0.0 mm
02:44 AM 44.9°F7.2°C 39.1°F3.9°C 80% 4.6 mph NW7.4 kmh NW 10.0 mph16.1 kmh 29.87 in1011.5 mb 0.00 in0.0 mm 0.00 in0.0 mm 0.00 in0.0 mm
02:49 AM 44.9°F7.2°C 39.1°F3.9°C 80% 2.0 mph W3.2 kmh W 15.0 mph24.1 kmh 29.87 in1011.5 mb 0.00 in0.0 mm 0.00 in0.0 mm 0.00 in0.0 mm
02:54 AM 44.8°F7.1°C 39.0°F3.9°C 80% 5.9 mph WNW9.5 kmh WNW 15.0 mph24.1 kmh 29.87 in1011.5 mb 0.00 in0.0 mm 0.00 in0.0 mm 0.00 in0.0 mm
03:00 AM 44.7°F7.1°C 38.9°F3.8°C 80% 3.8 mph NW6.1 kmh NW 15.0 mph24.1 kmh 29.87 in1011.5 mb 0.00 in0.0 mm 0.00 in0.0 mm 0.00 in0.0 mm
03:05 AM 44.6°F7.0°C 38.8°F3.8°C 80% 4.1 mph NW6.6 kmh NW 12.0 mph19.3 kmh 29.87 in1011.5 mb 0.00 in0.0 mm 0.00 in0.0 mm 0.00 in0.0 mm
03:10 AM 44.6°F7.0°C 39.1°F3.9°C 81% 6.2 mph WNW10.0 kmh WNW 18.0 mph29.0 kmh 29.87 in1011.5 mb 0.00 in0.0 mm 0.00 in0.0 mm 0.00 in0.0 mm
03:15 AM 44.5°F6.9°C 39.0°F3.9°C 81% 3.4 mph WNW5.5 kmh WNW 18.0 mph29.0 kmh 29.87 in1011.5 mb 0.00 in0.0 mm 0.00 in0.0 mm 0.00 in0.0 mm
03:20 AM 44.3°F6.8°C 38.9°F3.8°C 81% 3.1 mph WNW5.0 kmh WNW 18.0 mph29.0 kmh 29.87 in1011.5 mb 0.00 in0.0 mm 0.00 in0.0 mm 0.00 in0.0 mm
03:26 AM 44.3°F6.8°C 38.8°F3.8°C 81% 3.8 mph WNW6.1 kmh WNW 18.0 mph29.0 kmh 29.87 in1011.5 mb 0.00 in0.0 mm 0.00 in0.0 mm 0.00 in0.0 mm
03:31 AM 44.4°F6.9°C 39.0°F3.9°C 81% 2.8 mph WNW4.5 kmh WNW 12.0 mph19.3 kmh 29.87 in1011.5 mb 0.00 in0.0 mm 0.00 in0.0 mm 0.00 in0.0 mm
03:36 AM 44.5°F6.9°C 39.4°F4.1°C 82% 3.9 mph NW6.3 kmh NW 12.0 mph19.3 kmh 29.87 in1011.5 mb 0.00 in0.0 mm 0.00 in0.0 mm 0.00 in0.0 mm
03:41 AM 44.6°F7.0°C 39.1°F3.9°C 81% 3.4 mph NW5.5 kmh NW 13.0 mph20.9 kmh 29.86 in1011.2 mb 0.00 in0.0 mm 0.00 in0.0 mm 0.00 in0.0 mm
03:46 AM 44.7°F7.1°C 39.2°F4.0°C 81% 3.2 mph WNW5.1 kmh WNW 13.0 mph20.9 kmh 29.87 in1011.5 mb 0.00 in0.0 mm 0.00 in0.0 mm 0.00 in0.0 mm
03:52 AM 44.8°F7.1°C 39.3°F4.1°C 81% 3.3 mph NW5.3 kmh NW 13.0 mph20.9 kmh 29.86 in1011.2 mb 0.00 in0.0 mm 0.00 in0.0 mm 0.00 in0.0 mm
03:57 AM 44.9°F7.2°C 39.1°F3.9°C 80% 7.0 mph WNW11.3 kmh WNW 12.0 mph19.3 kmh 29.86 in1011.2 mb 0.00 in0.0 mm 0.00 in0.0 mm 0.00 in0.0 mm
04:02 AM 45.1°F7.3°C 39.3°F4.1°C 80% 3.1 mph WNW5.0 kmh WNW 12.0 mph19.3 kmh 29.86 in1011.2 mb 0.00 in0.0 mm 0.00 in0.0 mm 0.00 in0.0 mm
04:07 AM 45.1°F7.3°C 39.3°F4.1°C 80% 6.3 mph WNW10.1 kmh WNW 13.0 mph20.9 kmh 29.86 in1011.2 mb 0.00 in0.0 mm 0.00 in0.0 mm 0.00 in0.0 mm
04:12 AM 45.2°F7.3°C 39.4°F4.1°C 80% 4.4 mph WNW7.1 kmh WNW 13.0 mph20.9 kmh 29.86 in1011.2 mb 0.00 in0.0 mm 0.00 in0.0 mm 0.00 in0.0 mm
04:18 AM 45.1°F7.3°C 39.3°F4.1°C 80% 3.9 mph NW6.3 kmh NW 13.0 mph20.9 kmh 29.86 in1011.2 mb 0.00 in0.0 mm 0.00 in0.0 mm 0.00 in0.0 mm
04:23 AM 45.2°F7.3°C 39.4°F4.1°C 80% 4.4 mph WNW7.1 kmh WNW 13.0 mph20.9 kmh 29.86 in1011.2 mb 0.00 in0.0 mm 0.00 in0.0 mm 0.00 in0.0 mm
04:27 AM 45.3°F7.4°C 39.5°F4.2°C 80% 3.8 mph WNW6.1 kmh WNW 12.0 mph19.3 kmh 29.86 in1011.2 mb 0.00 in0.0 mm 0.00 in0.0 mm 0.00 in0.0 mm
04:32 AM 45.3°F7.4°C 39.5°F4.2°C 80% 3.3 mph WNW5.3 kmh WNW 12.0 mph19.3 kmh 29.86 in1011.2 mb 0.00 in0.0 mm 0.00 in0.0 mm 0.00 in0.0 mm
04:37 AM 45.4°F7.4°C 39.3°F4.1°C 79% 3.7 mph WNW6.0 kmh WNW 13.0 mph20.9 kmh 29.86 in1011.2 mb 0.00 in0.0 mm 0.00 in0.0 mm 0.00 in0.0 mm
04:43 AM 45.4°F7.4°C 39.3°F4.1°C 79% 5.4 mph WNW8.7 kmh WNW 13.0 mph20.9 kmh 29.86 in1011.2 mb 0.00 in0.0 mm 0.00 in0.0 mm 0.00 in0.0 mm
04:48 AM 45.4°F7.4°C 39.3°F4.1°C 79% 4.6 mph WNW7.4 kmh WNW 13.0 mph20.9 kmh 29.86 in1011.2 mb 0.00 in0.0 mm 0.00 in0.0 mm 0.00 in0.0 mm
04:53 AM 45.4°F7.4°C 39.3°F4.1°C 79% 2.3 mph WNW3.7 kmh WNW 13.0 mph20.9 kmh 29.86 in1011.2 mb 0.00 in0.0 mm 0.00 in0.0 mm 0.00 in0.0 mm
04:58 AM 45.5°F7.5°C 39.4°F4.1°C 79% 3.1 mph WNW5.0 kmh WNW 12.0 mph19.3 kmh 29.86 in1011.2 mb 0.00 in0.0 mm 0.00 in0.0 mm 0.00 in0.0 mm
05:03 AM 45.5°F7.5°C 39.4°F4.1°C 79% 4.4 mph WNW7.1 kmh WNW 12.0 mph19.3 kmh 29.86 in1011.2 mb 0.00 in0.0 mm 0.00 in0.0 mm 0.00 in0.0 mm
05:09 AM 45.5°F7.5°C 39.4°F4.1°C 79% 4.4 mph NW7.1 kmh NW 12.0 mph19.3 kmh 29.86 in1011.2 mb 0.00 in0.0 mm 0.00 in0.0 mm 0.00 in0.0 mm
05:14 AM 45.6°F7.6°C 39.5°F4.2°C 79% 4.0 mph NW6.4 kmh NW 12.0 mph19.3 kmh 29.86 in1011.2 mb 0.00 in0.0 mm 0.00 in0.0 mm 0.00 in0.0 mm
05:19 AM 45.6°F7.6°C 39.5°F4.2°C 79% 4.6 mph WNW7.4 kmh WNW 12.0 mph19.3 kmh 29.86 in1011.2 mb 0.00 in0.0 mm 0.00 in0.0 mm 0.00 in0.0 mm
05:24 AM 45.7°F7.6°C 39.6°F4.2°C 79% 4.0 mph NW6.4 kmh NW 11.0 mph17.7 kmh 29.86 in1011.2 mb 0.00 in0.0 mm 0.00 in0.0 mm 0.00 in0.0 mm
05:29 AM 45.7°F7.6°C 39.6°F4.2°C 79% 4.9 mph NW7.9 kmh NW 11.0 mph17.7 kmh 29.86 in1011.2 mb 0.00 in0.0 mm 0.00 in0.0 mm 0.00 in0.0 mm
05:35 AM 45.7°F7.6°C 39.6°F4.2°C 79% 4.6 mph NW7.4 kmh NW 11.0 mph17.7 kmh 29.87 in1011.5 mb 0.00 in0.0 mm 0.00 in0.0 mm 0.00 in0.0 mm
05:40 AM 45.7°F7.6°C 39.6°F4.2°C 79% 3.0 mph NW4.8 kmh NW 11.0 mph17.7 kmh 29.87 in1011.5 mb 0.00 in0.0 mm 0.00 in0.0 mm 0.00 in0.0 mm
05:45 AM 45.7°F7.6°C 39.9°F4.4°C 80% 3.3 mph WNW5.3 kmh WNW 11.0 mph17.7 kmh 29.87 in1011.5 mb 0.00 in0.0 mm 0.00 in0.0 mm 0.00 in0.0 mm
05:50 AM 45.7°F7.6°C 39.9°F4.4°C 80% 4.3 mph NW6.9 kmh NW 11.0 mph17.7 kmh 29.87 in1011.5 mb 0.00 in0.0 mm 0.00 in0.0 mm 0.00 in0.0 mm
05:55 AM 45.7°F7.6°C 39.9°F4.4°C 80% 2.7 mph NW4.3 kmh NW 11.0 mph17.7 kmh 29.87 in1011.5 mb 0.00 in0.0 mm 0.00 in0.0 mm 0.00 in0.0 mm
06:01 AM 45.8°F7.7°C 40.0°F4.4°C 80% 1.6 mph WNW2.6 kmh WNW 11.0 mph17.7 kmh 29.87 in1011.5 mb 0.00 in0.0 mm 0.00 in0.0 mm 0.00 in0.0 mm
06:06 AM 45.8°F7.7°C 40.0°F4.4°C 80% 3.7 mph WNW6.0 kmh WNW 11.0 mph17.7 kmh 29.88 in1011.9 mb 0.00 in0.0 mm 0.00 in0.0 mm 0.00 in0.0 mm
06:11 AM 45.8°F7.7°C 40.0°F4.4°C 80% 2.9 mph WNW4.7 kmh WNW 9.0 mph14.5 kmh 29.88 in1011.9 mb 0.00 in0.0 mm 0.00 in0.0 mm 0.00 in0.0 mm
06:16 AM 45.8°F7.7°C 40.0°F4.4°C 80% 3.3 mph NW5.3 kmh NW 10.0 mph16.1 kmh 29.88 in1011.9 mb 0.00 in0.0 mm 0.00 in0.0 mm 0.00 in0.0 mm
06:22 AM 45.8°F7.7°C 40.0°F4.4°C 80% 5.3 mph WNW8.5 kmh WNW 10.0 mph16.1 kmh 29.88 in1011.9 mb 0.00 in0.0 mm 0.00 in0.0 mm 0.00 in0.0 mm
06:27 AM 45.7°F7.6°C 39.9°F4.4°C 80% 2.8 mph WNW4.5 kmh WNW 10.0 mph16.1 kmh 29.89 in1012.2 mb 0.00 in0.0 mm 0.00 in0.0 mm 0.00 in0.0 mm
06:32 AM 45.7°F7.6°C 39.9°F4.4°C 80% 3.2 mph WNW5.1 kmh WNW 10.0 mph16.1 kmh 29.89 in1012.2 mb 0.00 in0.0 mm 0.00 in0.0 mm 0.00 in0.0 mm
06:37 AM 45.7°F7.6°C 39.9°F4.4°C 80% 3.9 mph WNW6.3 kmh WNW 9.0 mph14.5 kmh 29.89 in1012.2 mb 0.00 in0.0 mm 0.00 in0.0 mm 0.00 in0.0 mm
06:42 AM 45.7°F7.6°C 39.9°F4.4°C 80% 3.2 mph WNW5.1 kmh WNW 8.0 mph12.9 kmh 29.89 in1012.2 mb 0.00 in0.0 mm 0.00 in0.0 mm 0.00 in0.0 mm
06:48 AM 45.7°F7.6°C 39.9°F4.4°C 80% 2.4 mph WNW3.9 kmh WNW 8.0 mph12.9 kmh 29.89 in1012.2 mb 0.00 in0.0 mm 0.00 in0.0 mm 0.00 in0.0 mm
06:53 AM 45.7°F7.6°C 39.9°F4.4°C 80% 2.5 mph NW4.0 kmh NW 8.0 mph12.9 kmh 29.89 in1012.2 mb 0.00 in0.0 mm 0.00 in0.0 mm 0.00 in0.0 mm
06:58 AM 45.6°F7.6°C 39.8°F4.3°C 80% 4.0 mph WNW6.4 kmh WNW 8.0 mph12.9 kmh 29.90 in1012.5 mb 0.00 in0.0 mm 0.00 in0.0 mm 0.00 in0.0 mm
07:03 AM 45.7°F7.6°C 39.9°F4.4°C 80% 3.2 mph NW5.1 kmh NW 6.0 mph9.7 kmh 29.90 in1012.5 mb 0.00 in0.0 mm 0.00 in0.0 mm 0.00 in0.0 mm
07:08 AM 45.6°F7.6°C 39.8°F4.3°C 80% 3.1 mph WNW5.0 kmh WNW 6.0 mph9.7 kmh 29.90 in1012.5 mb 0.00 in0.0 mm 0.00 in0.0 mm 0.00 in0.0 mm
07:13 AM 45.6°F7.6°C 39.8°F4.3°C 80% 3.0 mph WNW4.8 kmh WNW 10.0 mph16.1 kmh 29.90 in1012.5 mb 0.00 in0.0 mm 0.00 in0.0 mm 0.00 in0.0 mm
07:19 AM 45.6°F7.6°C 39.8°F4.3°C 80% 2.7 mph NW4.3 kmh NW 10.0 mph16.1 kmh 29.90 in1012.5 mb 0.00 in0.0 mm 0.00 in0.0 mm 0.00 in0.0 mm
07:24 AM 45.6°F7.6°C 39.5°F4.2°C 79% 5.7 mph NW9.2 kmh NW 11.0 mph17.7 kmh 29.90 in1012.5 mb 0.00 in0.0 mm 0.00 in0.0 mm 0.00 in0.0 mm
07:29 AM 45.6°F7.6°C 39.5°F4.2°C 79% 3.8 mph WNW6.1 kmh WNW 11.0 mph17.7 kmh 29.90 in1012.5 mb 0.00 in0.0 mm 0.00 in0.0 mm 0.00 in0.0 mm
07:34 AM 45.6°F7.6°C 39.5°F4.2°C 79% 3.2 mph NW5.1 kmh NW 11.0 mph17.7 kmh 29.91 in1012.9 mb 0.00 in0.0 mm 0.00 in0.0 mm 0.00 in0.0 mm
07:40 AM 45.7°F7.6°C 39.6°F4.2°C 79% 4.8 mph WNW7.7 kmh WNW 12.0 mph19.3 kmh 29.91 in1012.9 mb 0.00 in0.0 mm 0.00 in0.0 mm 0.00 in0.0 mm
07:45 AM 45.7°F7.6°C 39.6°F4.2°C 79% 2.7 mph WNW4.3 kmh WNW 12.0 mph19.3 kmh 29.91 in1012.9 mb 0.00 in0.0 mm 0.00 in0.0 mm 0.00 in0.0 mm
07:50 AM 45.7°F7.6°C 39.9°F4.4°C 80% 2.5 mph W4.0 kmh W 12.0 mph19.3 kmh 29.91 in1012.9 mb 0.00 in0.0 mm 0.00 in0.0 mm 0.00 in0.0 mm
07:55 AM 45.7°F7.6°C 39.9°F4.4°C 80% 2.8 mph WNW4.5 kmh WNW 10.0 mph16.1 kmh 29.92 in1013.2 mb 0.00 in0.0 mm 0.00 in0.0 mm 0.00 in0.0 mm
08:00 AM 45.7°F7.6°C 39.9°F4.4°C 80% 2.4 mph WNW3.9 kmh WNW 9.0 mph14.5 kmh 29.92 in1013.2 mb 0.00 in0.0 mm 0.00 in0.0 mm 0.00 in0.0 mm
08:06 AM 45.7°F7.6°C 39.9°F4.4°C 80% 1.8 mph WNW2.9 kmh WNW 9.0 mph14.5 kmh 29.92 in1013.2 mb 0.00 in0.0 mm 0.00 in0.0 mm 0.00 in0.0 mm
08:11 AM 45.7°F7.6°C 39.9°F4.4°C 80% 1.7 mph WNW2.7 kmh WNW 9.0 mph14.5 kmh 29.93 in1013.5 mb 0.00 in0.0 mm 0.00 in0.0 mm 0.00 in0.0 mm
08:16 AM 45.8°F7.7°C 40.0°F4.4°C 80% 2.8 mph WNW4.5 kmh WNW 9.0 mph14.5 kmh 29.93 in1013.5 mb 0.00 in0.0 mm 0.00 in0.0 mm 0.00 in0.0 mm
08:21 AM 45.9°F7.7°C 40.1°F4.5°C 80% 2.6 mph W4.2 kmh W 7.0 mph11.3 kmh 29.92 in1013.2 mb 0.00 in0.0 mm 0.00 in0.0 mm 0.00 in0.0 mm
08:26 AM 46.0°F7.8°C 40.2°F4.6°C 80% 1.8 mph W2.9 kmh W 7.0 mph11.3 kmh 29.93 in1013.5 mb 0.00 in0.0 mm 0.00 in0.0 mm 0.00 in0.0 mm
08:32 AM 46.0°F7.8°C 40.2°F4.6°C 80% 1.8 mph WNW2.9 kmh WNW 7.0 mph11.3 kmh 29.94 in1013.9 mb 0.00 in0.0 mm 0.00 in0.0 mm 0.00 in0.0 mm
08:37 AM 46.1°F7.8°C 40.3°F4.6°C 80% 3.2 mph WNW5.1 kmh WNW 7.0 mph11.3 kmh 29.94 in1013.9 mb 0.00 in0.0 mm 0.00 in0.0 mm 0.00 in0.0 mm
08:42 AM 46.1°F7.8°C 40.3°F4.6°C 80% 2.6 mph NW4.2 kmh NW 8.0 mph12.9 kmh 29.94 in1013.9 mb 0.00 in0.0 mm 0.00 in0.0 mm 0.00 in0.0 mm
08:47 AM 46.1°F7.8°C 40.3°F4.6°C 80% 3.2 mph WNW5.1 kmh WNW 8.0 mph12.9 kmh 29.94 in1013.9 mb 0.00 in0.0 mm 0.00 in0.0 mm 0.00 in0.0 mm
08:52 AM 46.3°F7.9°C 40.5°F4.7°C 80% 2.1 mph WNW3.4 kmh WNW 8.0 mph12.9 kmh 29.94 in1013.9 mb 0.00 in0.0 mm 0.00 in0.0 mm 0.00 in0.0 mm
08:58 AM 46.4°F8.0°C 40.6°F4.8°C 80% 2.1 mph WNW3.4 kmh WNW 8.0 mph12.9 kmh 29.94 in1013.9 mb 0.00 in0.0 mm 0.00 in0.0 mm 0.00 in0.0 mm
09:03 AM 46.5°F8.1°C 40.7°F4.8°C 80% 1.6 mph W2.6 kmh W 6.0 mph9.7 kmh 29.94 in1013.9 mb 0.00 in0.0 mm 0.00 in0.0 mm 0.00 in0.0 mm
09:08 AM 46.8°F8.2°C 41.0°F5.0°C 80% 1.0 mph NW1.6 kmh NW 5.0 mph8.0 kmh 29.95 in1014.2 mb 0.00 in0.0 mm 0.00 in0.0 mm 0.00 in0.0 mm
09:13 AM 46.7°F8.2°C 40.9°F4.9°C 80% 2.6 mph NW4.2 kmh NW 8.0 mph12.9 kmh 29.95 in1014.2 mb 0.00 in0.0 mm 0.00 in0.0 mm 0.00 in0.0 mm
09:18 AM 46.4°F8.0°C 39.6°F4.2°C 77% 4.9 mph NW7.9 kmh NW 12.0 mph19.3 kmh 29.95 in1014.2 mb 0.00 in0.0 mm 0.00 in0.0 mm 0.00 in0.0 mm
09:24 AM 46.3°F7.9°C 39.5°F4.2°C 77% 6.3 mph NW10.1 kmh NW 13.0 mph20.9 kmh 29.95 in1014.2 mb 0.00 in0.0 mm 0.00 in0.0 mm 0.00 in0.0 mm
09:28 AM 46.2°F7.9°C 39.4°F4.1°C 77% 5.3 mph NW8.5 kmh NW 14.0 mph22.5 kmh 29.95 in1014.2 mb 0.00 in0.0 mm 0.00 in0.0 mm 0.00 in0.0 mm
09:33 AM 46.2°F7.9°C 39.4°F4.1°C 77% 7.5 mph WNW12.1 kmh WNW 14.0 mph22.5 kmh 29.96 in1014.6 mb 0.00 in0.0 mm 0.00 in0.0 mm 0.00 in0.0 mm
09:38 AM 46.5°F8.1°C 39.7°F4.3°C 77% 5.0 mph W8.0 kmh W 14.0 mph22.5 kmh 29.96 in1014.6 mb 0.00 in0.0 mm 0.00 in0.0 mm 0.00 in0.0 mm
09:43 AM 46.7°F8.2°C 39.9°F4.4°C 77% 3.3 mph NW5.3 kmh NW 14.0 mph22.5 kmh 29.96 in1014.6 mb 0.00 in0.0 mm 0.00 in0.0 mm 0.00 in0.0 mm
09:49 AM 46.9°F8.3°C 40.1°F4.5°C 77% 4.5 mph WNW7.2 kmh WNW 12.0 mph19.3 kmh 29.96 in1014.6 mb 0.00 in0.0 mm 0.00 in0.0 mm 0.00 in0.0 mm
09:54 AM 47.2°F8.4°C 40.1°F4.5°C 76% 1.8 mph WNW2.9 kmh WNW 12.0 mph19.3 kmh 29.96 in1014.6 mb 0.00 in0.0 mm 0.00 in0.0 mm 0.00 in0.0 mm
09:59 AM 47.3°F8.5°C 40.2°F4.6°C 76% 4.0 mph WNW6.4 kmh WNW 12.0 mph19.3 kmh 29.96 in1014.6 mb 0.00 in0.0 mm 0.00 in0.0 mm 0.00 in0.0 mm
10:04 AM 47.5°F8.6°C 40.0°F4.4°C 75% 4.2 mph WNW6.8 kmh WNW 11.0 mph17.7 kmh 29.96 in1014.6 mb 0.00 in0.0 mm 0.00 in0.0 mm 0.00 in0.0 mm
10:09 AM 47.9°F8.8°C 40.4°F4.7°C 75% 2.3 mph WSW3.7 kmh WSW 11.0 mph17.7 kmh 29.95 in1014.2 mb 0.00 in0.0 mm 0.00 in0.0 mm 0.00 in0.0 mm
10:15 AM 47.9°F8.8°C 40.4°F4.7°C 75% 3.8 mph WNW6.1 kmh WNW 13.0 mph20.9 kmh 29.96 in1014.6 mb 0.00 in0.0 mm 0.00 in0.0 mm 0.00 in0.0 mm
10:20 AM 48.5°F9.2°C 40.6°F4.8°C 74% 3.1 mph NW5.0 kmh NW 13.0 mph20.9 kmh 29.95 in1014.2 mb 0.00 in0.0 mm 0.00 in0.0 mm 0.00 in0.0 mm
10:25 AM 48.4°F9.1°C 40.2°F4.6°C 73% 3.1 mph NW5.0 kmh NW 14.0 mph22.5 kmh 29.95 in1014.2 mb 0.00 in0.0 mm 0.00 in0.0 mm 0.00 in0.0 mm
10:30 AM 48.8°F9.3°C 40.3°F4.6°C 72% 3.0 mph NW4.8 kmh NW 14.0 mph22.5 kmh 29.95 in1014.2 mb 0.00 in0.0 mm 0.00 in0.0 mm 0.00 in0.0 mm
10:35 AM 49.1°F9.5°C 40.6°F4.8°C 72% 3.5 mph N5.6 kmh N 14.0 mph22.5 kmh 29.95 in1014.2 mb 0.00 in0.0 mm 0.00 in0.0 mm 0.00 in0.0 mm
10:41 AM 48.9°F9.4°C 40.0°F4.4°C 71% 5.1 mph NW8.2 kmh NW 11.0 mph17.7 kmh 29.95 in1014.2 mb 0.00 in0.0 mm 0.00 in0.0 mm 0.00 in0.0 mm
10:46 AM 49.0°F9.4°C 40.5°F4.7°C 72% 1.6 mph NNW2.6 kmh NNW 10.0 mph16.1 kmh 29.95 in1014.2 mb 0.00 in0.0 mm 0.00 in0.0 mm 0.00 in0.0 mm
10:51 AM 49.4°F9.7°C 40.5°F4.7°C 71% 2.3 mph NW3.7 kmh NW 10.0 mph16.1 kmh 29.94 in1013.9 mb 0.00 in0.0 mm 0.00 in0.0 mm 0.00 in0.0 mm
10:56 AM 49.4°F9.7°C 40.5°F4.7°C 71% 5.4 mph NW8.7 kmh NW 12.0 mph19.3 kmh 29.94 in1013.9 mb 0.00 in0.0 mm 0.00 in0.0 mm 0.00 in0.0 mm
11:01 AM 49.4°F9.7°C 40.5°F4.7°C 71% 3.8 mph WNW6.1 kmh WNW 12.0 mph19.3 kmh 29.94 in1013.9 mb 0.00 in0.0 mm 0.00 in0.0 mm 0.00 in0.0 mm
11:07 AM 49.5°F9.7°C 40.6°F4.8°C 71% 3.0 mph NNW4.8 kmh NNW 12.0 mph19.3 kmh 29.94 in1013.9 mb 0.00 in0.0 mm 0.00 in0.0 mm 0.00 in0.0 mm
11:12 AM 50.0°F10.0°C 40.6°F4.8°C 70% 3.6 mph W5.8 kmh W 12.0 mph19.3 kmh 29.94 in1013.9 mb 0.00 in0.0 mm 0.00 in0.0 mm 0.00 in0.0 mm
11:17 AM 50.3°F10.2°C 40.9°F4.9°C 70% 3.8 mph NW6.1 kmh NW 10.0 mph16.1 kmh 29.94 in1013.9 mb 0.00 in0.0 mm 0.00 in0.0 mm 0.00 in0.0 mm
11:22 AM 50.2°F10.1°C 40.5°F4.7°C 69% 5.6 mph NW9.0 kmh NW 13.0 mph20.9 kmh 29.94 in1013.9 mb 0.00 in0.0 mm 0.00 in0.0 mm 0.00 in0.0 mm
11:27 AM 50.5°F10.3°C 40.8°F4.9°C 69% 2.4 mph NW3.9 kmh NW 13.0 mph20.9 kmh 29.93 in1013.5 mb 0.00 in0.0 mm 0.00 in0.0 mm 0.00 in0.0 mm
11:33 AM 50.7°F10.4°C 41.4°F5.2°C 70% 2.3 mph NW3.7 kmh NW 13.0 mph20.9 kmh 29.93 in1013.5 mb 0.00 in0.0 mm 0.00 in0.0 mm 0.00 in0.0 mm
11:38 AM 51.2°F10.7°C 40.3°F4.6°C 66% 4.5 mph WNW7.2 kmh WNW 10.0 mph16.1 kmh 29.94 in1013.9 mb 0.00 in0.0 mm 0.00 in0.0 mm 0.00 in0.0 mm
11:43 AM 51.0°F10.6°C 40.9°F4.9°C 68% 3.1 mph WNW5.0 kmh WNW 13.0 mph20.9 kmh 29.94 in1013.9 mb 0.00 in0.0 mm 0.00 in0.0 mm 0.00 in0.0 mm
11:48 AM 51.2°F10.7°C 40.7°F4.8°C 67% 3.5 mph NW5.6 kmh NW 13.0 mph20.9 kmh 29.94 in1013.9 mb 0.00 in0.0 mm 0.00 in0.0 mm 0.00 in0.0 mm
11:53 AM 51.7°F10.9°C 40.8°F4.9°C 66% 3.2 mph NW5.1 kmh NW 13.0 mph20.9 kmh 29.93 in1013.5 mb 0.00 in0.0 mm 0.00 in0.0 mm 0.00 in0.0 mm
11:59 AM 51.7°F10.9°C 40.8°F4.9°C 66% 5.3 mph NW8.5 kmh NW 11.0 mph17.7 kmh 29.93 in1013.5 mb 0.00 in0.0 mm 0.00 in0.0 mm 0.00 in0.0 mm
12:04 PM 51.8°F11.0°C 41.3°F5.2°C 67% 4.6 mph WNW7.4 kmh WNW 9.0 mph14.5 kmh 29.92 in1013.2 mb 0.00 in0.0 mm 0.00 in0.0 mm 0.00 in0.0 mm
12:09 PM 52.2°F11.2°C 41.7°F5.4°C 67% 2.6 mph NW4.2 kmh NW 9.0 mph14.5 kmh 29.92 in1013.2 mb 0.00 in0.0 mm 0.00 in0.0 mm 0.00 in0.0 mm
12:14 PM 52.7°F11.5°C 41.4°F5.2°C 65% 4.3 mph WNW6.9 kmh WNW 9.0 mph14.5 kmh 29.92 in1013.2 mb 0.00 in0.0 mm 0.00 in0.0 mm 0.00 in0.0 mm
12:20 PM 52.4°F11.3°C 41.5°F5.3°C 66% 2.6 mph WSW4.2 kmh WSW 9.0 mph14.5 kmh 29.92 in1013.2 mb 0.00 in0.0 mm 0.00 in0.0 mm 0.00 in0.0 mm
12:25 PM 52.7°F11.5°C 41.3°F5.2°C 65% 5.7 mph WNW9.2 kmh WNW 12.0 mph19.3 kmh 29.92 in1013.2 mb 0.00 in0.0 mm 0.00 in0.0 mm 0.00 in0.0 mm
12:30 PM 52.6°F11.4°C 41.9°F5.5°C 67% 3.1 mph W5.0 kmh W 12.0 mph19.3 kmh 29.91 in1012.9 mb 0.00 in0.0 mm 0.00 in0.0 mm 0.00 in0.0 mm
12:35 PM 52.8°F11.6°C 41.9°F5.5°C 66% 4.0 mph W6.4 kmh W 12.0 mph19.3 kmh 29.91 in1012.9 mb 0.00 in0.0 mm 0.00 in0.0 mm 0.00 in0.0 mm
12:40 PM 53.2°F11.8°C 41.9°F5.5°C 65% 2.4 mph WNW3.9 kmh WNW 12.0 mph19.3 kmh 29.91 in1012.9 mb 0.00 in0.0 mm 0.00 in0.0 mm 0.00 in0.0 mm
12:45 PM 53.1°F11.7°C 41.8°F5.4°C 65% 3.3 mph WNW5.3 kmh WNW 9.0 mph14.5 kmh 29.90 in1012.5 mb 0.00 in0.0 mm 0.00 in0.0 mm 0.00 in0.0 mm
12:51 PM 53.3°F11.8°C 42.0°F5.6°C 65% 3.6 mph W5.8 kmh W 9.0 mph14.5 kmh 29.91 in1012.9 mb 0.00 in0.0 mm 0.00 in0.0 mm 0.00 in0.0 mm
12:56 PM 53.3°F11.8°C 42.0°F5.6°C 65% 2.8 mph WNW4.5 kmh WNW 9.0 mph14.5 kmh 29.91 in1012.9 mb 0.00 in0.0 mm 0.00 in0.0 mm 0.00 in0.0 mm
01:01 PM 53.4°F11.9°C 41.6°F5.3°C 64% 3.8 mph WNW6.1 kmh WNW 9.0 mph14.5 kmh 29.90 in1012.5 mb 0.00 in0.0 mm 0.00 in0.0 mm 0.00 in0.0 mm
01:06 PM 53.8°F12.1°C 41.6°F5.3°C 63% 4.8 mph W7.7 kmh W 12.0 mph19.3 kmh 29.90 in1012.5 mb 0.00 in0.0 mm 0.00 in0.0 mm 0.00 in0.0 mm
01:11 PM 53.7°F12.1°C 41.5°F5.3°C 63% 3.0 mph W4.8 kmh W 12.0 mph19.3 kmh 29.90 in1012.5 mb 0.00 in0.0 mm 0.00 in0.0 mm 0.00 in0.0 mm
01:17 PM 54.0°F12.2°C 42.2°F5.7°C 64% 2.3 mph WSW3.7 kmh WSW 12.0 mph19.3 kmh 29.89 in1012.2 mb 0.00 in0.0 mm 0.00 in0.0 mm 0.00 in0.0 mm
01:22 PM 54.4°F12.4°C 41.8°F5.4°C 62% 3.0 mph W4.8 kmh W 12.0 mph19.3 kmh 29.89 in1012.2 mb 0.00 in0.0 mm 0.00 in0.0 mm 0.00 in0.0 mm
01:27 PM 54.6°F12.6°C 42.0°F5.6°C 62% 6.1 mph W9.8 kmh W 12.0 mph19.3 kmh 29.89 in1012.2 mb 0.00 in0.0 mm 0.00 in0.0 mm 0.00 in0.0 mm
01:32 PM 54.4°F12.4°C 42.2°F5.7°C 63% 4.2 mph W6.8 kmh W 9.0 mph14.5 kmh 29.89 in1012.2 mb 0.00 in0.0 mm 0.00 in0.0 mm 0.00 in0.0 mm
01:38 PM 54.8°F12.7°C 42.1°F5.6°C 62% 5.0 mph W8.0 kmh W 12.0 mph19.3 kmh 29.89 in1012.2 mb 0.00 in0.0 mm 0.00 in0.0 mm 0.00 in0.0 mm
01:43 PM 54.9°F12.7°C 41.8°F5.4°C 61% 5.2 mph W8.4 kmh W 12.0 mph19.3 kmh 29.88 in1011.9 mb 0.00 in0.0 mm 0.00 in0.0 mm 0.00 in0.0 mm
01:48 PM 55.2°F12.9°C 42.1°F5.6°C 61% 2.6 mph WNW4.2 kmh WNW 12.0 mph19.3 kmh 29.88 in1011.9 mb 0.00 in0.0 mm 0.00 in0.0 mm 0.00 in0.0 mm
01:53 PM 55.5°F13.1°C 42.4°F5.8°C 61% 4.7 mph WNW7.6 kmh WNW 12.0 mph19.3 kmh 29.88 in1011.9 mb 0.00 in0.0 mm 0.00 in0.0 mm 0.00 in0.0 mm
01:58 PM 55.7°F13.2°C 42.1°F5.6°C 60% 3.6 mph NW5.8 kmh NW 12.0 mph19.3 kmh 29.88 in1011.9 mb 0.00 in0.0 mm 0.00 in0.0 mm 0.00 in0.0 mm
02:04 PM 55.4°F13.0°C 41.9°F5.5°C 60% 6.6 mph W10.6 kmh W 15.0 mph24.1 kmh 29.88 in1011.9 mb 0.00 in0.0 mm 0.00 in0.0 mm 0.00 in0.0 mm
02:09 PM 55.4°F13.0°C 41.9°F5.5°C 60% 4.0 mph WNW6.4 kmh WNW 15.0 mph24.1 kmh 29.88 in1011.9 mb 0.00 in0.0 mm 0.00 in0.0 mm 0.00 in0.0 mm
02:14 PM 55.6°F13.1°C 42.5°F5.8°C 61% 3.1 mph WNW5.0 kmh WNW 15.0 mph24.1 kmh 29.87 in1011.5 mb 0.00 in0.0 mm 0.00 in0.0 mm 0.00 in0.0 mm
02:19 PM 55.8°F13.2°C 42.1°F5.6°C 60% 1.4 mph N2.3 kmh N 15.0 mph24.1 kmh 29.87 in1011.5 mb 0.00 in0.0 mm 0.00 in0.0 mm 0.00 in0.0 mm
02:24 PM 56.4°F13.6°C 42.8°F6.0°C 60% 3.0 mph WNW4.8 kmh WNW 9.0 mph14.5 kmh 29.87 in1011.5 mb 0.00 in0.0 mm 0.00 in0.0 mm 0.00 in0.0 mm
02:30 PM 56.5°F13.6°C 42.4°F5.8°C 59% 4.0 mph W6.4 kmh W 10.0 mph16.1 kmh 29.87 in1011.5 mb 0.00 in0.0 mm 0.00 in0.0 mm 0.00 in0.0 mm
02:35 PM 56.3°F13.5°C 42.3°F5.7°C 59% 4.0 mph W6.4 kmh W 10.0 mph16.1 kmh 29.87 in1011.5 mb 0.00 in0.0 mm 0.00 in0.0 mm 0.00 in0.0 mm
02:40 PM 56.5°F13.6°C 42.3°F5.7°C 59% 2.9 mph WNW4.7 kmh WNW 10.0 mph16.1 kmh 29.87 in1011.5 mb 0.00 in0.0 mm 0.00 in0.0 mm 0.00 in0.0 mm
02:45 PM 56.7°F13.7°C 42.2°F5.7°C 58% 2.6 mph WNW4.2 kmh WNW 10.0 mph16.1 kmh 29.87 in1011.5 mb 0.00 in0.0 mm 0.00 in0.0 mm 0.00 in0.0 mm
02:50 PM 56.5°F13.6°C 42.0°F5.6°C 58% 1.9 mph WNW3.1 kmh WNW 11.0 mph17.7 kmh 29.87 in1011.5 mb 0.00 in0.0 mm 0.00 in0.0 mm 0.00 in0.0 mm
02:56 PM 56.7°F13.7°C 42.2°F5.7°C 58% 2.7 mph WSW4.3 kmh WSW 11.0 mph17.7 kmh 29.87 in1011.5 mb 0.00 in0.0 mm 0.00 in0.0 mm 0.00 in0.0 mm
03:01 PM 56.9°F13.8°C 42.4°F5.8°C 58% 4.0 mph W6.4 kmh W 11.0 mph17.7 kmh 29.87 in1011.5 mb 0.00 in0.0 mm 0.00 in0.0 mm 0.00 in0.0 mm
03:06 PM 56.8°F13.8°C 42.3°F5.7°C 58% 3.7 mph W6.0 kmh W 10.0 mph16.1 kmh 29.87 in1011.5 mb 0.00 in0.0 mm 0.00 in0.0 mm 0.00 in0.0 mm
03:11 PM 57.0°F13.9°C 42.5°F5.8°C 58% 3.8 mph W6.1 kmh W 10.0 mph16.1 kmh 29.87 in1011.5 mb 0.00 in0.0 mm 0.00 in0.0 mm 0.00 in0.0 mm
03:16 PM 57.2°F14.0°C 43.1°F6.2°C 59% 1.6 mph WSW2.6 kmh WSW 10.0 mph16.1 kmh 29.87 in1011.5 mb 0.00 in0.0 mm 0.00 in0.0 mm 0.00 in0.0 mm
03:22 PM 57.5°F14.2°C 43.4°F6.3°C 59% 2.5 mph W4.0 kmh W 11.0 mph17.7 kmh 29.87 in1011.5 mb 0.00 in0.0 mm 0.00 in0.0 mm 0.00 in0.0 mm
03:26 PM 57.6°F14.2°C 43.0°F6.1°C 58% 2.4 mph W3.9 kmh W 11.0 mph17.7 kmh 29.87 in1011.5 mb 0.00 in0.0 mm 0.00 in0.0 mm 0.00 in0.0 mm
03:31 PM 57.7°F14.3°C 42.7°F5.9°C 57% 3.7 mph W6.0 kmh W 11.0 mph17.7 kmh 29.87 in1011.5 mb 0.00 in0.0 mm 0.00 in0.0 mm 0.00 in0.0 mm
03:36 PM 57.6°F14.2°C 42.6°F5.9°C 57% 2.1 mph WSW3.4 kmh WSW 10.0 mph16.1 kmh 29.87 in1011.5 mb 0.00 in0.0 mm 0.00 in0.0 mm 0.00 in0.0 mm
03:41 PM 57.5°F14.2°C 42.5°F5.8°C 57% 5.8 mph WNW9.3 kmh WNW 10.0 mph16.1 kmh 29.87 in1011.5 mb 0.00 in0.0 mm 0.00 in0.0 mm 0.00 in0.0 mm
03:46 PM 57.4°F14.1°C 41.9°F5.5°C 56% 5.0 mph WNW8.0 kmh WNW 9.0 mph14.5 kmh 29.88 in1011.9 mb 0.00 in0.0 mm 0.00 in0.0 mm 0.00 in0.0 mm
03:52 PM 57.6°F14.2°C 42.6°F5.9°C 57% 2.1 mph W3.4 kmh W 9.0 mph14.5 kmh 29.88 in1011.9 mb 0.00 in0.0 mm 0.00 in0.0 mm 0.00 in0.0 mm
03:57 PM 57.6°F14.2°C 42.1°F5.6°C 56% 5.5 mph WNW8.9 kmh WNW 14.0 mph22.5 kmh 29.88 in1011.9 mb 0.00 in0.0 mm 0.00 in0.0 mm 0.00 in0.0 mm
04:02 PM 57.4°F14.1°C 42.4°F5.8°C 57% 5.0 mph WNW8.0 kmh WNW 14.0 mph22.5 kmh 29.88 in1011.9 mb 0.00 in0.0 mm 0.00 in0.0 mm 0.00 in0.0 mm
04:07 PM 57.4°F14.1°C 42.4°F5.8°C 57% 3.2 mph WNW5.1 kmh WNW 14.0 mph22.5 kmh 29.88 in1011.9 mb 0.00 in0.0 mm 0.00 in0.0 mm 0.00 in0.0 mm
04:12 PM 57.3°F14.1°C 42.7°F5.9°C 58% 3.6 mph WNW5.8 kmh WNW 14.0 mph22.5 kmh 29.88 in1011.9 mb 0.00 in0.0 mm 0.00 in0.0 mm 0.00 in0.0 mm
04:18 PM 57.3°F14.1°C 42.7°F5.9°C 58% 4.2 mph NW6.8 kmh NW 10.0 mph16.1 kmh 29.88 in1011.9 mb 0.00 in0.0 mm 0.00 in0.0 mm 0.00 in0.0 mm
04:23 PM 57.4°F14.1°C 42.8°F6.0°C 58% 2.3 mph NW3.7 kmh NW 10.0 mph16.1 kmh 29.88 in1011.9 mb 0.00 in0.0 mm 0.00 in0.0 mm 0.00 in0.0 mm
04:28 PM 57.3°F14.1°C 42.7°F5.9°C 58% 3.7 mph W6.0 kmh W 10.0 mph16.1 kmh 29.89 in1012.2 mb 0.00 in0.0 mm 0.00 in0.0 mm 0.00 in0.0 mm
04:33 PM 57.1°F13.9°C 42.0°F5.6°C 57% 3.2 mph W5.1 kmh W 9.0 mph14.5 kmh 29.89 in1012.2 mb 0.00 in0.0 mm 0.00 in0.0 mm 0.00 in0.0 mm
04:38 PM 57.0°F13.9°C 41.4°F5.2°C 56% 6.2 mph WNW10.0 kmh WNW 12.0 mph19.3 kmh 29.89 in1012.2 mb 0.00 in0.0 mm 0.00 in0.0 mm 0.00 in0.0 mm
04:44 PM 56.8°F13.8°C 42.2°F5.7°C 58% 3.1 mph WNW5.0 kmh WNW 12.0 mph19.3 kmh 29.89 in1012.2 mb 0.00 in0.0 mm 0.00 in0.0 mm 0.00 in0.0 mm
04:49 PM 56.6°F13.7°C 42.4°F5.8°C 59% 2.7 mph NW4.3 kmh NW 12.0 mph19.3 kmh 29.89 in1012.2 mb 0.00 in0.0 mm 0.00 in0.0 mm 0.00 in0.0 mm
04:54 PM 56.4°F13.6°C 42.4°F5.8°C 59% 1.9 mph W3.1 kmh W 12.0 mph19.3 kmh 29.89 in1012.2 mb 0.00 in0.0 mm 0.00 in0.0 mm 0.00 in0.0 mm
04:59 PM 56.2°F13.4°C 42.2°F5.7°C 59% 3.3 mph NW5.3 kmh NW 8.0 mph12.9 kmh 29.89 in1012.2 mb 0.00 in0.0 mm 0.00 in0.0 mm 0.00 in0.0 mm
05:04 PM 55.9°F13.3°C 42.3°F5.7°C 60% 2.8 mph WNW4.5 kmh WNW 8.0 mph12.9 kmh 29.89 in1012.2 mb 0.00 in0.0 mm 0.00 in0.0 mm 0.00 in0.0 mm
05:10 PM 55.7°F13.2°C 42.6°F5.9°C 61% 1.7 mph WNW2.7 kmh WNW 8.0 mph12.9 kmh 29.89 in1012.2 mb 0.00 in0.0 mm 0.00 in0.0 mm 0.00 in0.0 mm
05:15 PM 55.3°F12.9°C 42.6°F5.9°C 62% 2.1 mph WNW3.4 kmh WNW 8.0 mph12.9 kmh 29.89 in1012.2 mb 0.00 in0.0 mm 0.00 in0.0 mm 0.00 in0.0 mm
05:20 PM 54.9°F12.7°C 42.2°F5.7°C 62% 3.1 mph WNW5.0 kmh WNW 8.0 mph12.9 kmh 29.89 in1012.2 mb 0.00 in0.0 mm 0.00 in0.0 mm 0.00 in0.0 mm
05:25 PM 54.5°F12.5°C 42.3°F5.7°C 63% 2.1 mph W3.4 kmh W 8.0 mph12.9 kmh 29.89 in1012.2 mb 0.00 in0.0 mm 0.00 in0.0 mm 0.00 in0.0 mm
05:30 PM 54.2°F12.3°C 42.0°F5.6°C 63% 3.1 mph W5.0 kmh W 8.0 mph12.9 kmh 29.89 in1012.2 mb 0.00 in0.0 mm 0.00 in0.0 mm 0.00 in0.0 mm
05:36 PM 54.0°F12.2°C 42.2°F5.7°C 64% 3.1 mph W5.0 kmh W 7.0 mph11.3 kmh 29.89 in1012.2 mb 0.00 in0.0 mm 0.00 in0.0 mm 0.00 in0.0 mm
05:41 PM 53.7°F12.1°C 41.9°F5.5°C 64% 2.7 mph W4.3 kmh W 7.0 mph11.3 kmh 29.89 in1012.2 mb 0.00 in0.0 mm 0.00 in0.0 mm 0.00 in0.0 mm
05:46 PM 53.4°F11.9°C 42.0°F5.6°C 65% 2.5 mph W4.0 kmh W 7.0 mph11.3 kmh 29.89 in1012.2 mb 0.00 in0.0 mm 0.00 in0.0 mm 0.00 in0.0 mm
05:51 PM 53.1°F11.7°C 42.2°F5.7°C 66% 2.3 mph W3.7 kmh W 7.0 mph11.3 kmh 29.90 in1012.5 mb 0.00 in0.0 mm 0.00 in0.0 mm 0.00 in0.0 mm
05:56 PM 52.9°F11.6°C 42.0°F5.6°C 66% 1.3 mph W2.1 kmh W 4.0 mph6.4 kmh 29.90 in1012.5 mb 0.00 in0.0 mm 0.00 in0.0 mm 0.00 in0.0 mm
06:02 PM 52.6°F11.4°C 42.1°F5.6°C 67% 1.9 mph W3.1 kmh W 4.0 mph6.4 kmh 29.90 in1012.5 mb 0.00 in0.0 mm 0.00 in0.0 mm 0.00 in0.0 mm
06:07 PM 52.3°F11.3°C 42.2°F5.7°C 68% 2.1 mph W3.4 kmh W 4.0 mph6.4 kmh 29.90 in1012.5 mb 0.00 in0.0 mm 0.00 in0.0 mm 0.00 in0.0 mm
06:12 PM 52.1°F11.2°C 42.0°F5.6°C 68% 1.7 mph W2.7 kmh W 4.0 mph6.4 kmh 29.90 in1012.5 mb 0.00 in0.0 mm 0.00 in0.0 mm 0.00 in0.0 mm
06:17 PM 51.9°F11.1°C 42.2°F5.7°C 69% 1.5 mph W2.4 kmh W 4.0 mph6.4 kmh 29.90 in1012.5 mb 0.00 in0.0 mm 0.00 in0.0 mm 0.00 in0.0 mm
06:22 PM 51.6°F10.9°C 41.9°F5.5°C 69% 1.6 mph W2.6 kmh W 4.0 mph6.4 kmh 29.90 in1012.5 mb 0.00 in0.0 mm 0.00 in0.0 mm 0.00 in0.0 mm
06:29 PM 51.2°F10.7°C 41.7°F5.4°C 70% 1.0 mph W1.6 kmh W 4.0 mph6.4 kmh 29.90 in1012.5 mb 0.00 in0.0 mm 0.00 in0.0 mm 0.00 in0.0 mm
06:34 PM 51.0°F10.6°C 41.9°F5.5°C 71% 1.4 mph W2.3 kmh W 4.0 mph6.4 kmh 29.90 in1012.5 mb 0.00 in0.0 mm 0.00 in0.0 mm 0.00 in0.0 mm
06:39 PM 50.6°F10.3°C 42.0°F5.6°C 72% 1.2 mph W1.9 kmh W 4.0 mph6.4 kmh 29.91 in1012.9 mb 0.00 in0.0 mm 0.00 in0.0 mm 0.00 in0.0 mm
06:44 PM 50.4°F10.2°C 42.1°F5.6°C 73% 1.3 mph WSW2.1 kmh WSW 3.0 mph4.8 kmh 29.91 in1012.9 mb 0.00 in0.0 mm 0.00 in0.0 mm 0.00 in0.0 mm
06:49 PM 50.3°F10.2°C 42.1°F5.6°C 73% 1.4 mph WSW2.3 kmh WSW 3.0 mph4.8 kmh 29.91 in1012.9 mb 0.00 in0.0 mm 0.00 in0.0 mm 0.00 in0.0 mm
06:54 PM 50.1°F10.1°C 41.9°F5.5°C 73% 1.1 mph W1.8 kmh W 3.0 mph4.8 kmh 29.91 in1012.9 mb 0.00 in0.0 mm 0.00 in0.0 mm 0.00 in0.0 mm
06:59 PM 49.9°F9.9°C 41.9°F5.5°C 74% 1.2 mph WNW1.9 kmh WNW 3.0 mph4.8 kmh 29.91 in1012.9 mb 0.00 in0.0 mm 0.00 in0.0 mm 0.00 in0.0 mm
07:04 PM 49.6°F9.8°C 41.7°F5.4°C 74% 1.0 mph WSW1.6 kmh WSW 3.0 mph4.8 kmh 29.91 in1012.9 mb 0.00 in0.0 mm 0.00 in0.0 mm 0.00 in0.0 mm
07:09 PM 49.4°F9.7°C 41.8°F5.4°C 75% Calm Calm 2.0 mph3.2 kmh 29.91 in1012.9 mb 0.00 in0.0 mm 0.00 in0.0 mm 0.00 in0.0 mm
07:14 PM 49.2°F9.6°C 41.7°F5.4°C 75% 1.0 mph W1.6 kmh W 2.0 mph3.2 kmh 29.91 in1012.9 mb 0.00 in0.0 mm 0.00 in0.0 mm 0.00 in0.0 mm
07:20 PM 48.9°F9.4°C 41.7°F5.4°C 76% 1.0 mph W1.6 kmh W 2.0 mph3.2 kmh 29.91 in1012.9 mb 0.00 in0.0 mm 0.00 in0.0 mm 0.00 in0.0 mm
07:24 PM 48.8°F9.3°C 41.6°F5.3°C 76% 1.0 mph W1.6 kmh W 2.0 mph3.2 kmh 29.91 in1012.9 mb 0.00 in0.0 mm 0.00 in0.0 mm 0.00 in0.0 mm
07:29 PM 48.7°F9.3°C 41.5°F5.3°C 76% 1.0 mph W1.6 kmh W 1.0 mph1.6 kmh 29.91 in1012.9 mb 0.00 in0.0 mm 0.00 in0.0 mm 0.00 in0.0 mm
07:34 PM 48.6°F9.2°C 41.8°F5.4°C 77% 1.0 mph W1.6 kmh W 1.0 mph1.6 kmh 29.91 in1012.9 mb 0.00 in0.0 mm 0.00 in0.0 mm 0.00 in0.0 mm
07:39 PM 48.4°F9.1°C 41.6°F5.3°C 77% 1.0 mph WSW1.6 kmh WSW 1.0 mph1.6 kmh 29.91 in1012.9 mb 0.00 in0.0 mm 0.00 in0.0 mm 0.00 in0.0 mm
07:44 PM 48.1°F8.9°C 41.6°F5.3°C 78% 1.0 mph WSW1.6 kmh WSW 2.0 mph3.2 kmh 29.91 in1012.9 mb 0.00 in0.0 mm 0.00 in0.0 mm 0.00 in0.0 mm
07:50 PM 47.9°F8.8°C 41.7°F5.4°C 79% 1.1 mph WSW1.8 kmh WSW 2.0 mph3.2 kmh 29.91 in1012.9 mb 0.00 in0.0 mm 0.00 in0.0 mm 0.00 in0.0 mm
07:55 PM 47.8°F8.8°C 41.6°F5.3°C 79% 1.1 mph WSW1.8 kmh WSW 2.0 mph3.2 kmh 29.91 in1012.9 mb 0.00 in0.0 mm 0.00 in0.0 mm 0.00 in0.0 mm
08:00 PM 47.8°F8.8°C 41.6°F5.3°C 79% 1.0 mph W1.6 kmh W 2.0 mph3.2 kmh 29.91 in1012.9 mb 0.00 in0.0 mm 0.00 in0.0 mm 0.00 in0.0 mm
08:04 PM 47.7°F8.7°C 41.5°F5.3°C 79% 1.0 mph WSW1.6 kmh WSW 2.0 mph3.2 kmh 29.92 in1013.2 mb 0.00 in0.0 mm 0.00 in0.0 mm 0.00 in0.0 mm
08:10 PM 47.6°F8.7°C 41.4°F5.2°C 79% 1.1 mph W1.8 kmh W 2.0 mph3.2 kmh 29.92 in1013.2 mb 0.00 in0.0 mm 0.00 in0.0 mm 0.00 in0.0 mm
08:15 PM 47.6°F8.7°C 41.4°F5.2°C 79% 1.3 mph WSW2.1 kmh WSW 2.0 mph3.2 kmh 29.92 in1013.2 mb 0.00 in0.0 mm 0.00 in0.0 mm 0.00 in0.0 mm
08:19 PM 47.3°F8.5°C 41.5°F5.3°C 80% 1.2 mph WSW1.9 kmh WSW 3.0 mph4.8 kmh 29.92 in1013.2 mb 0.00 in0.0 mm 0.00 in0.0 mm 0.00 in0.0 mm
08:25 PM 47.1°F8.4°C 41.3°F5.2°C 80% 1.4 mph WSW2.3 kmh WSW 3.0 mph4.8 kmh 29.92 in1013.2 mb 0.00 in0.0 mm 0.00 in0.0 mm 0.00 in0.0 mm
08:30 PM 47.1°F8.4°C 41.2°F5.1°C 80% 1.4 mph W2.3 kmh W 3.0 mph4.8 kmh 29.92 in1013.2 mb 0.00 in0.0 mm 0.00 in0.0 mm 0.00 in0.0 mm
08:35 PM 47.0°F8.3°C 41.1°F5.1°C 80% 1.3 mph W2.1 kmh W 3.0 mph4.8 kmh 29.92 in1013.2 mb 0.00 in0.0 mm 0.00 in0.0 mm 0.00 in0.0 mm
08:40 PM 47.0°F8.3°C 41.2°F5.1°C 80% 1.3 mph WSW2.1 kmh WSW 3.0 mph4.8 kmh 29.91 in1012.9 mb 0.00 in0.0 mm 0.00 in0.0 mm 0.00 in0.0 mm
08:45 PM 47.1°F8.4°C 41.3°F5.2°C 80% 1.1 mph W1.8 kmh W 3.0 mph4.8 kmh 29.91 in1012.9 mb 0.00 in0.0 mm 0.00 in0.0 mm 0.00 in0.0 mm
08:50 PM 47.0°F8.3°C 41.2°F5.1°C 80% 1.1 mph WSW1.8 kmh WSW 3.0 mph4.8 kmh 29.91 in1012.9 mb 0.00 in0.0 mm 0.00 in0.0 mm 0.00 in0.0 mm
08:55 PM 46.9°F8.3°C 41.1°F5.1°C 80% 1.2 mph WSW1.9 kmh WSW 2.0 mph3.2 kmh 29.92 in1013.2 mb 0.00 in0.0 mm 0.00 in0.0 mm 0.00 in0.0 mm
09:00 PM 46.7°F8.2°C 41.2°F5.1°C 81% 1.3 mph WSW2.1 kmh WSW 2.0 mph3.2 kmh 29.91 in1012.9 mb 0.00 in0.0 mm 0.00 in0.0 mm 0.00 in0.0 mm
09:05 PM 46.6°F8.1°C 41.1°F5.1°C 81% 1.1 mph W1.8 kmh W 2.0 mph3.2 kmh 29.91 in1012.9 mb 0.00 in0.0 mm 0.00 in0.0 mm 0.00 in0.0 mm
09:10 PM 46.4°F8.0°C 41.2°F5.1°C 82% 1.0 mph W1.6 kmh W 3.0 mph4.8 kmh 29.92 in1013.2 mb 0.00 in0.0 mm 0.00 in0.0 mm 0.00 in0.0 mm
09:15 PM 46.1°F7.8°C 40.9°F4.9°C 82% 1.3 mph WSW2.1 kmh WSW 3.0 mph4.8 kmh 29.91 in1012.9 mb 0.00 in0.0 mm 0.00 in0.0 mm 0.00 in0.0 mm
09:20 PM 46.0°F7.8°C 41.1°F5.1°C 83% 1.0 mph W1.6 kmh W 3.0 mph4.8 kmh 29.92 in1013.2 mb 0.00 in0.0 mm 0.00 in0.0 mm 0.00 in0.0 mm
09:25 PM 45.8°F7.7°C 40.9°F4.9°C 83% 1.0 mph WSW1.6 kmh WSW 3.0 mph4.8 kmh 29.92 in1013.2 mb 0.00 in0.0 mm 0.00 in0.0 mm 0.00 in0.0 mm
09:30 PM 45.7°F7.6°C 40.8°F4.9°C 83% 1.1 mph W1.8 kmh W 3.0 mph4.8 kmh 29.92 in1013.2 mb 0.00 in0.0 mm 0.00 in0.0 mm 0.00 in0.0 mm
09:35 PM 45.6°F7.6°C 40.7°F4.8°C 83% 1.0 mph WSW1.6 kmh WSW 3.0 mph4.8 kmh 29.92 in1013.2 mb 0.00 in0.0 mm 0.00 in0.0 mm 0.00 in0.0 mm
09:40 PM 45.5°F7.5°C 40.9°F4.9°C 84% 1.4 mph W2.3 kmh W 3.0 mph4.8 kmh 29.92 in1013.2 mb 0.00 in0.0 mm 0.00 in0.0 mm 0.00 in0.0 mm
09:45 PM 45.5°F7.5°C 40.9°F4.9°C 84% 1.0 mph WSW1.6 kmh WSW 3.0 mph4.8 kmh 29.92 in1013.2 mb 0.00 in0.0 mm 0.00 in0.0 mm 0.00 in0.0 mm
09:50 PM 45.5°F7.5°C 40.9°F4.9°C 84% 1.0 mph WSW1.6 kmh WSW 2.0 mph3.2 kmh 29.92 in1013.2 mb 0.00 in0.0 mm 0.00 in0.0 mm 0.00 in0.0 mm
09:55 PM 45.3°F7.4°C 40.7°F4.8°C 84% 1.0 mph WSW1.6 kmh WSW 2.0 mph3.2 kmh 29.92 in1013.2 mb 0.00 in0.0 mm 0.00 in0.0 mm 0.00 in0.0 mm
10:00 PM 45.3°F7.4°C 40.7°F4.8°C 84% 1.4 mph W2.3 kmh W 3.0 mph4.8 kmh 29.92 in1013.2 mb 0.00 in0.0 mm 0.00 in0.0 mm 0.00 in0.0 mm
10:05 PM 45.1°F7.3°C 40.5°F4.7°C 84% 1.0 mph W1.6 kmh W 3.0 mph4.8 kmh 29.92 in1013.2 mb 0.00 in0.0 mm 0.00 in0.0 mm 0.00 in0.0 mm
10:10 PM 45.0°F7.2°C 40.7°F4.8°C 85% 1.1 mph W1.8 kmh W 3.0 mph4.8 kmh 29.93 in1013.5 mb 0.00 in0.0 mm 0.00 in0.0 mm 0.00 in0.0 mm
10:15 PM 44.9°F7.2°C 40.7°F4.8°C 85% 1.2 mph W1.9 kmh W 3.0 mph4.8 kmh 29.92 in1013.2 mb 0.00 in0.0 mm 0.00 in0.0 mm 0.00 in0.0 mm
10:20 PM 44.9°F7.2°C 40.7°F4.8°C 85% 1.9 mph W3.1 kmh W 4.0 mph6.4 kmh 29.92 in1013.2 mb 0.00 in0.0 mm 0.00 in0.0 mm 0.00 in0.0 mm
10:25 PM 44.9°F7.2°C 40.7°F4.8°C 85% 1.6 mph WNW2.6 kmh WNW 4.0 mph6.4 kmh 29.92 in1013.2 mb 0.00 in0.0 mm 0.00 in0.0 mm 0.00 in0.0 mm
10:30 PM 44.9°F7.2°C 40.7°F4.8°C 85% 1.4 mph WNW2.3 kmh WNW 4.0 mph6.4 kmh 29.92 in1013.2 mb 0.00 in0.0 mm 0.00 in0.0 mm 0.00 in0.0 mm
10:35 PM 44.8°F7.1°C 40.6°F4.8°C 85% 1.1 mph NW1.8 kmh NW 4.0 mph6.4 kmh 29.92 in1013.2 mb 0.00 in0.0 mm 0.00 in0.0 mm 0.00 in0.0 mm
10:40 PM 44.7°F7.1°C 40.5°F4.7°C 85% 1.2 mph WNW1.9 kmh WNW 3.0 mph4.8 kmh 29.92 in1013.2 mb 0.00 in0.0 mm 0.00 in0.0 mm 0.00 in0.0 mm
10:45 PM 44.7°F7.1°C 40.5°F4.7°C 85% 1.0 mph WNW1.6 kmh WNW 3.0 mph4.8 kmh 29.92 in1013.2 mb 0.00 in0.0 mm 0.00 in0.0 mm 0.00 in0.0 mm
10:50 PM 44.5°F6.9°C 40.3°F4.6°C 85% 1.0 mph W1.6 kmh W 3.0 mph4.8 kmh 29.93 in1013.5 mb 0.00 in0.0 mm 0.00 in0.0 mm 0.00 in0.0 mm
10:55 PM 44.3°F6.8°C 40.1°F4.5°C 85% 1.0 mph WSW1.6 kmh WSW 3.0 mph4.8 kmh 29.93 in1013.5 mb 0.00 in0.0 mm 0.00 in0.0 mm 0.00 in0.0 mm
11:00 PM 44.0°F6.7°C 40.1°F4.5°C 86% 1.0 mph WSW1.6 kmh WSW 3.0 mph4.8 kmh 29.93 in1013.5 mb 0.00 in0.0 mm 0.00 in0.0 mm 0.00 in0.0 mm
11:05 PM 43.7°F6.5°C 40.1°F4.5°C 87% 1.2 mph WSW1.9 kmh WSW 2.0 mph3.2 kmh 29.93 in1013.5 mb 0.00 in0.0 mm 0.00 in0.0 mm 0.00 in0.0 mm
11:10 PM 43.4°F6.3°C 40.1°F4.5°C 88% 1.4 mph WSW2.3 kmh WSW 4.0 mph6.4 kmh 29.93 in1013.5 mb 0.00 in0.0 mm 0.00 in0.0 mm 0.00 in0.0 mm
11:15 PM 43.1°F6.2°C 39.8°F4.3°C 88% 1.1 mph WSW1.8 kmh WSW 4.0 mph6.4 kmh 29.94 in1013.9 mb 0.00 in0.0 mm 0.00 in0.0 mm 0.00 in0.0 mm
11:20 PM 42.7°F5.9°C 39.6°F4.2°C 89% 1.4 mph WSW2.3 kmh WSW 4.0 mph6.4 kmh 29.93 in1013.5 mb 0.00 in0.0 mm 0.00 in0.0 mm 0.00 in0.0 mm
11:25 PM 42.5°F5.8°C 39.4°F4.1°C 89% 1.4 mph WSW2.3 kmh WSW 4.0 mph6.4 kmh 29.93 in1013.5 mb 0.00 in0.0 mm 0.00 in0.0 mm 0.00 in0.0 mm
11:29 PM 42.3°F5.7°C 39.5°F4.2°C 90% 1.4 mph WSW2.3 kmh WSW 3.0 mph4.8 kmh 29.94 in1013.9 mb 0.00 in0.0 mm 0.00 in0.0 mm 0.00 in0.0 mm
11:34 PM 42.2°F5.7°C 39.4°F4.1°C 90% 1.3 mph W2.1 kmh W 3.0 mph4.8 kmh 29.93 in1013.5 mb 0.00 in0.0 mm 0.00 in0.0 mm 0.00 in0.0 mm
11:39 PM 42.1°F5.6°C 39.4°F4.1°C 90% 1.3 mph WSW2.1 kmh WSW 3.0 mph4.8 kmh 29.93 in1013.5 mb 0.00 in0.0 mm 0.00 in0.0 mm 0.00 in0.0 mm
11:44 PM 42.1°F5.6°C 39.3°F4.1°C 90% 1.2 mph W1.9 kmh W 3.0 mph4.8 kmh 29.93 in1013.5 mb 0.00 in0.0 mm 0.00 in0.0 mm 0.00 in0.0 mm
11:49 PM 42.1°F5.6°C 39.3°F4.1°C 90% 1.5 mph WSW2.4 kmh WSW 3.0 mph4.8 kmh 29.93 in1013.5 mb 0.00 in0.0 mm 0.00 in0.0 mm 0.00 in0.0 mm
11:54 PM 42.0°F5.6°C 39.2°F4.0°C 90% 1.4 mph WSW2.3 kmh WSW 4.0 mph6.4 kmh 29.93 in1013.5 mb 0.00 in0.0 mm 0.00 in0.0 mm 0.00 in0.0 mm
11:59 PM 42.0°F5.6°C 39.2°F4.0°C 90% 1.5 mph WSW2.4 kmh WSW 4.0 mph6.4 kmh 29.93 in1013.5 mb 0.00 in0.0 mm 0.00 in0.0 mm 0.00 in0.0 mm